sensor_id;sensor_type;location;lat;lon;timestamp;temperature;humidity
41592;DHT22;28026;48.562;14.440;2024-01-16T00:00:46;-3.40;99.90
41592;DHT22;28026;48.562;14.440;2024-01-16T00:03:17;-3.40;99.90
41592;DHT22;28026;48.562;14.440;2024-01-16T00:05:48;-3.40;99.90
41592;DHT22;28026;48.562;14.440;2024-01-16T00:08:19;-3.40;99.90
41592;DHT22;28026;48.562;14.440;2024-01-16T00:10:50;-3.40;99.90
41592;DHT22;28026;48.562;14.440;2024-01-16T00:13:21;-3.40;99.90
41592;DHT22;28026;48.562;14.440;2024-01-16T00:15:52;-3.50;99.90
41592;DHT22;28026;48.562;14.440;2024-01-16T00:18:23;-3.40;99.90
41592;DHT22;28026;48.562;14.440;2024-01-16T00:20:54;-3.50;99.90
41592;DHT22;28026;48.562;14.440;2024-01-16T00:23:25;-3.50;99.90
41592;DHT22;28026;48.562;14.440;2024-01-16T00:25:56;-3.50;99.90
41592;DHT22;28026;48.562;14.440;2024-01-16T00:28:27;-3.50;99.90
41592;DHT22;28026;48.562;14.440;2024-01-16T00:30:58;-3.50;99.90
41592;DHT22;28026;48.562;14.440;2024-01-16T00:33:28;-3.60;99.90
41592;DHT22;28026;48.562;14.440;2024-01-16T00:35:59;-3.50;99.90
41592;DHT22;28026;48.562;14.440;2024-01-16T00:38:33;-3.50;99.90
41592;DHT22;28026;48.562;14.440;2024-01-16T00:41:04;-3.50;99.90
41592;DHT22;28026;48.562;14.440;2024-01-16T00:43:35;-3.50;99.90
41592;DHT22;28026;48.562;14.440;2024-01-16T00:46:06;-3.50;99.90
41592;DHT22;28026;48.562;14.440;2024-01-16T00:48:37;-3.50;99.90
41592;DHT22;28026;48.562;14.440;2024-01-16T00:51:08;-3.50;99.90
41592;DHT22;28026;48.562;14.440;2024-01-16T00:53:40;-3.50;99.90
41592;DHT22;28026;48.562;14.440;2024-01-16T00:56:12;-3.60;99.90
41592;DHT22;28026;48.562;14.440;2024-01-16T00:58:43;-3.50;99.90
41592;DHT22;28026;48.562;14.440;2024-01-16T01:01:14;-3.50;99.90
41592;DHT22;28026;48.562;14.440;2024-01-16T01:03:45;-3.50;99.90
41592;DHT22;28026;48.562;14.440;2024-01-16T01:06:16;-3.50;99.90
41592;DHT22;28026;48.562;14.440;2024-01-16T01:08:47;-3.40;99.90
41592;DHT22;28026;48.562;14.440;2024-01-16T01:11:18;-3.40;99.90
41592;DHT22;28026;48.562;14.440;2024-01-16T01:13:48;-3.40;99.90
41592;DHT22;28026;48.562;14.440;2024-01-16T01:16:19;-3.40;99.90
41592;DHT22;28026;48.562;14.440;2024-01-16T01:18:50;-3.40;99.90
41592;DHT22;28026;48.562;14.440;2024-01-16T01:21:21;-3.40;99.90
41592;DHT22;28026;48.562;14.440;2024-01-16T01:23:52;-3.50;99.90
41592;DHT22;28026;48.562;14.440;2024-01-16T01:26:23;-3.40;99.90
41592;DHT22;28026;48.562;14.440;2024-01-16T01:28:54;-3.50;99.90
41592;DHT22;28026;48.562;14.440;2024-01-16T01:31:25;-3.40;99.90
41592;DHT22;28026;48.562;14.440;2024-01-16T01:33:55;-3.40;99.90
41592;DHT22;28026;48.562;14.440;2024-01-16T01:36:27;-3.40;99.90
41592;DHT22;28026;48.562;14.440;2024-01-16T01:38:58;-3.40;99.90
41592;DHT22;28026;48.562;14.440;2024-01-16T01:41:29;-3.40;99.90
41592;DHT22;28026;48.562;14.440;2024-01-16T01:44:00;-3.30;99.90
41592;DHT22;28026;48.562;14.440;2024-01-16T01:46:33;-3.30;99.90
41592;DHT22;28026;48.562;14.440;2024-01-16T01:49:06;-3.30;99.90
41592;DHT22;28026;48.562;14.440;2024-01-16T01:51:37;-3.30;99.90
41592;DHT22;28026;48.562;14.440;2024-01-16T01:54:08;-3.50;99.90
41592;DHT22;28026;48.562;14.440;2024-01-16T01:56:46;-3.40;99.90
41592;DHT22;28026;48.562;14.440;2024-01-16T01:59:19;-3.40;99.90
41592;DHT22;28026;48.562;14.440;2024-01-16T02:01:55;-3.50;99.90
41592;DHT22;28026;48.562;14.440;2024-01-16T02:04:28;-3.50;99.90
41592;DHT22;28026;48.562;14.440;2024-01-16T02:07:01;-3.40;99.90
41592;DHT22;28026;48.562;14.440;2024-01-16T02:09:32;-3.40;99.90
41592;DHT22;28026;48.562;14.440;2024-01-16T02:12:05;-3.40;99.90
41592;DHT22;28026;48.562;14.440;2024-01-16T02:14:37;-3.40;99.90
41592;DHT22;28026;48.562;14.440;2024-01-16T02:17:08;-3.40;99.90
41592;DHT22;28026;48.562;14.440;2024-01-16T02:19:39;-3.40;99.90
41592;DHT22;28026;48.562;14.440;2024-01-16T02:22:15;-3.40;99.90
41592;DHT22;28026;48.562;14.440;2024-01-16T02:24:51;-3.40;99.90
41592;DHT22;28026;48.562;14.440;2024-01-16T02:27:22;-3.50;99.90
41592;DHT22;28026;48.562;14.440;2024-01-16T02:29:53;-3.40;99.90
41592;DHT22;28026;48.562;14.440;2024-01-16T02:32:24;-3.40;99.90
41592;DHT22;28026;48.562;14.440;2024-01-16T02:34:55;-3.40;99.90
41592;DHT22;28026;48.562;14.440;2024-01-16T02:37:26;-3.40;99.90
41592;DHT22;28026;48.562;14.440;2024-01-16T02:39:57;-3.40;99.90
41592;DHT22;28026;48.562;14.440;2024-01-16T02:42:29;-3.50;99.90
41592;DHT22;28026;48.562;14.440;2024-01-16T02:45:01;-3.50;99.90
41592;DHT22;28026;48.562;14.440;2024-01-16T02:47:34;-3.50;99.90
41592;DHT22;28026;48.562;14.440;2024-01-16T02:50:05;-3.60;99.90
41592;DHT22;28026;48.562;14.440;2024-01-16T02:52:38;-3.60;99.90
41592;DHT22;28026;48.562;14.440;2024-01-16T02:55:09;-3.60;99.90
41592;DHT22;28026;48.562;14.440;2024-01-16T02:57:40;-3.60;99.90
41592;DHT22;28026;48.562;14.440;2024-01-16T03:00:11;-3.60;99.90
41592;DHT22;28026;48.562;14.440;2024-01-16T03:02:44;-3.60;99.90
41592;DHT22;28026;48.562;14.440;2024-01-16T03:05:15;-3.60;99.90
41592;DHT22;28026;48.562;14.440;2024-01-16T03:07:46;-3.60;99.90
41592;DHT22;28026;48.562;14.440;2024-01-16T03:10:17;-3.60;99.90
41592;DHT22;28026;48.562;14.440;2024-01-16T03:12:48;-3.70;99.90
41592;DHT22;28026;48.562;14.440;2024-01-16T03:15:19;-3.70;99.90
41592;DHT22;28026;48.562;14.440;2024-01-16T03:17:50;-3.70;99.90
41592;DHT22;28026;48.562;14.440;2024-01-16T03:20:21;-3.70;99.90
41592;DHT22;28026;48.562;14.440;2024-01-16T03:22:53;-3.70;99.90
41592;DHT22;28026;48.562;14.440;2024-01-16T03:25:24;-3.80;99.90
41592;DHT22;28026;48.562;14.440;2024-01-16T03:27:55;-3.80;99.90
41592;DHT22;28026;48.562;14.440;2024-01-16T03:30:26;-3.80;99.90
41592;DHT22;28026;48.562;14.440;2024-01-16T03:32:58;-3.80;99.90
41592;DHT22;28026;48.562;14.440;2024-01-16T03:35:29;-3.80;99.90
41592;DHT22;28026;48.562;14.440;2024-01-16T03:38:00;-3.80;99.90
41592;DHT22;28026;48.562;14.440;2024-01-16T03:40:31;-3.80;99.90
41592;DHT22;28026;48.562;14.440;2024-01-16T03:43:05;-3.90;99.90
41592;DHT22;28026;48.562;14.440;2024-01-16T03:45:36;-3.90;99.90
41592;DHT22;28026;48.562;14.440;2024-01-16T03:48:07;-3.90;99.90
41592;DHT22;28026;48.562;14.440;2024-01-16T03:50:38;-3.90;99.90
41592;DHT22;28026;48.562;14.440;2024-01-16T03:53:14;-3.90;99.90
41592;DHT22;28026;48.562;14.440;2024-01-16T03:55:44;-3.90;99.90
41592;DHT22;28026;48.562;14.440;2024-01-16T03:58:16;-3.90;99.90
41592;DHT22;28026;48.562;14.440;2024-01-16T04:00:47;-3.90;99.90
41592;DHT22;28026;48.562;14.440;2024-01-16T04:03:20;-4.00;99.90
41592;DHT22;28026;48.562;14.440;2024-01-16T04:05:51;-3.90;99.90
41592;DHT22;28026;48.562;14.440;2024-01-16T04:08:22;-3.90;99.90
41592;DHT22;28026;48.562;14.440;2024-01-16T04:10:53;-3.90;99.90
41592;DHT22;28026;48.562;14.440;2024-01-16T04:13:24;-4.00;99.90
41592;DHT22;28026;48.562;14.440;2024-01-16T04:15:55;-4.00;99.90
41592;DHT22;28026;48.562;14.440;2024-01-16T04:18:25;-4.00;99.90
41592;DHT22;28026;48.562;14.440;2024-01-16T04:20:56;-4.00;99.90
41592;DHT22;28026;48.562;14.440;2024-01-16T04:23:27;-4.00;99.90
41592;DHT22;28026;48.562;14.440;2024-01-16T04:25:58;-4.00;99.90
41592;DHT22;28026;48.562;14.440;2024-01-16T04:28:29;-4.00;99.90
41592;DHT22;28026;48.562;14.440;2024-01-16T04:31:00;-4.00;99.90
41592;DHT22;28026;48.562;14.440;2024-01-16T04:33:32;-4.00;99.90
41592;DHT22;28026;48.562;14.440;2024-01-16T04:36:03;-4.00;99.90
41592;DHT22;28026;48.562;14.440;2024-01-16T04:38:34;-4.00;99.90
41592;DHT22;28026;48.562;14.440;2024-01-16T04:41:05;-3.90;99.90
41592;DHT22;28026;48.562;14.440;2024-01-16T04:43:36;-4.00;99.90
41592;DHT22;28026;48.562;14.440;2024-01-16T04:46:07;-3.90;99.90
41592;DHT22;28026;48.562;14.440;2024-01-16T04:48:38;-3.90;99.90
41592;DHT22;28026;48.562;14.440;2024-01-16T04:51:08;-3.90;99.90
41592;DHT22;28026;48.562;14.440;2024-01-16T04:53:39;-3.90;99.90
41592;DHT22;28026;48.562;14.440;2024-01-16T04:56:11;-3.90;99.90
41592;DHT22;28026;48.562;14.440;2024-01-16T04:58:41;-3.90;99.90
41592;DHT22;28026;48.562;14.440;2024-01-16T05:01:13;-3.90;99.90
41592;DHT22;28026;48.562;14.440;2024-01-16T05:03:44;-3.90;99.90
41592;DHT22;28026;48.562;14.440;2024-01-16T05:06:15;-4.00;99.90
41592;DHT22;28026;48.562;14.440;2024-01-16T05:08:46;-4.00;99.90
41592;DHT22;28026;48.562;14.440;2024-01-16T05:11:18;-4.00;99.90
41592;DHT22;28026;48.562;14.440;2024-01-16T05:13:49;-4.00;99.90
41592;DHT22;28026;48.562;14.440;2024-01-16T05:16:20;-4.00;99.90
41592;DHT22;28026;48.562;14.440;2024-01-16T05:18:51;-4.00;99.90
41592;DHT22;28026;48.562;14.440;2024-01-16T05:21:21;-4.00;99.90
41592;DHT22;28026;48.562;14.440;2024-01-16T05:23:52;-4.00;99.90
41592;DHT22;28026;48.562;14.440;2024-01-16T05:26:23;-4.00;99.90
41592;DHT22;28026;48.562;14.440;2024-01-16T05:28:54;-4.00;99.90
41592;DHT22;28026;48.562;14.440;2024-01-16T05:31:25;-4.00;99.90
41592;DHT22;28026;48.562;14.440;2024-01-16T05:33:56;-4.00;99.90
41592;DHT22;28026;48.562;14.440;2024-01-16T05:36:28;-4.00;99.90
41592;DHT22;28026;48.562;14.440;2024-01-16T05:38:59;-3.90;99.90
41592;DHT22;28026;48.562;14.440;2024-01-16T05:41:33;-3.80;99.90
41592;DHT22;28026;48.562;14.440;2024-01-16T05:44:05;-3.80;99.90
41592;DHT22;28026;48.562;14.440;2024-01-16T05:46:36;-3.90;99.90
41592;DHT22;28026;48.562;14.440;2024-01-16T05:49:07;-3.90;99.90
41592;DHT22;28026;48.562;14.440;2024-01-16T05:51:38;-3.90;99.90
41592;DHT22;28026;48.562;14.440;2024-01-16T05:54:09;-4.00;99.90
41592;DHT22;28026;48.562;14.440;2024-01-16T05:56:40;-4.00;99.90
41592;DHT22;28026;48.562;14.440;2024-01-16T05:59:11;-4.00;99.90
41592;DHT22;28026;48.562;14.440;2024-01-16T06:01:41;-4.10;99.90
41592;DHT22;28026;48.562;14.440;2024-01-16T06:04:12;-4.00;99.90
41592;DHT22;28026;48.562;14.440;2024-01-16T06:06:43;-4.10;99.90
41592;DHT22;28026;48.562;14.440;2024-01-16T06:09:15;-3.90;99.90
41592;DHT22;28026;48.562;14.440;2024-01-16T06:11:46;-3.90;99.90
41592;DHT22;28026;48.562;14.440;2024-01-16T06:14:18;-3.90;99.90
41592;DHT22;28026;48.562;14.440;2024-01-16T06:16:51;-3.90;99.90
41592;DHT22;28026;48.562;14.440;2024-01-16T06:19:22;-3.90;99.90
41592;DHT22;28026;48.562;14.440;2024-01-16T06:21:53;-3.90;99.90
41592;DHT22;28026;48.562;14.440;2024-01-16T06:24:24;-3.90;99.90
41592;DHT22;28026;48.562;14.440;2024-01-16T06:26:55;-3.90;99.90
41592;DHT22;28026;48.562;14.440;2024-01-16T06:29:26;-3.90;99.90
41592;DHT22;28026;48.562;14.440;2024-01-16T06:31:57;-3.90;99.90
41592;DHT22;28026;48.562;14.440;2024-01-16T06:34:28;-3.90;99.90
41592;DHT22;28026;48.562;14.440;2024-01-16T06:36:59;-3.90;99.90
41592;DHT22;28026;48.562;14.440;2024-01-16T06:39:30;-3.90;99.90
41592;DHT22;28026;48.562;14.440;2024-01-16T06:42:01;-3.90;99.90
41592;DHT22;28026;48.562;14.440;2024-01-16T06:44:34;-3.80;99.90
41592;DHT22;28026;48.562;14.440;2024-01-16T06:47:05;-3.80;99.90
41592;DHT22;28026;48.562;14.440;2024-01-16T06:49:36;-3.80;99.90
41592;DHT22;28026;48.562;14.440;2024-01-16T06:52:08;-3.90;99.90
41592;DHT22;28026;48.562;14.440;2024-01-16T06:54:39;-3.90;99.90
41592;DHT22;28026;48.562;14.440;2024-01-16T06:57:11;-3.90;99.90
41592;DHT22;28026;48.562;14.440;2024-01-16T06:59:42;-3.90;99.90
41592;DHT22;28026;48.562;14.440;2024-01-16T07:02:12;-3.90;99.90
41592;DHT22;28026;48.562;14.440;2024-01-16T07:04:43;-3.90;99.90
41592;DHT22;28026;48.562;14.440;2024-01-16T07:07:14;-3.90;99.90
41592;DHT22;28026;48.562;14.440;2024-01-16T07:09:45;-3.90;99.90
41592;DHT22;28026;48.562;14.440;2024-01-16T07:12:17;-3.90;99.90
41592;DHT22;28026;48.562;14.440;2024-01-16T07:14:48;-3.90;99.90
41592;DHT22;28026;48.562;14.440;2024-01-16T07:17:18;-3.90;99.90
41592;DHT22;28026;48.562;14.440;2024-01-16T07:19:49;-3.90;99.90
41592;DHT22;28026;48.562;14.440;2024-01-16T07:22:20;-3.80;99.90
41592;DHT22;28026;48.562;14.440;2024-01-16T07:24:51;-3.90;99.90
41592;DHT22;28026;48.562;14.440;2024-01-16T07:27:22;-3.90;99.90
41592;DHT22;28026;48.562;14.440;2024-01-16T07:29:53;-3.90;99.90
41592;DHT22;28026;48.562;14.440;2024-01-16T07:32:24;-3.90;99.90
41592;DHT22;28026;48.562;14.440;2024-01-16T07:34:54;-3.80;99.90
41592;DHT22;28026;48.562;14.440;2024-01-16T07:37:25;-3.80;99.90
41592;DHT22;28026;48.562;14.440;2024-01-16T07:39:56;-3.80;99.90
41592;DHT22;28026;48.562;14.440;2024-01-16T07:42:27;-3.80;99.90
41592;DHT22;28026;48.562;14.440;2024-01-16T07:45:04;-3.70;99.90
41592;DHT22;28026;48.562;14.440;2024-01-16T07:47:36;-3.80;99.90
41592;DHT22;28026;48.562;14.440;2024-01-16T07:50:07;-3.80;99.90
41592;DHT22;28026;48.562;14.440;2024-01-16T07:52:38;-3.70;99.90
41592;DHT22;28026;48.562;14.440;2024-01-16T07:55:09;-3.70;99.90
41592;DHT22;28026;48.562;14.440;2024-01-16T07:57:40;-3.80;99.90
41592;DHT22;28026;48.562;14.440;2024-01-16T08:00:11;-3.80;99.90
41592;DHT22;28026;48.562;14.440;2024-01-16T08:02:43;-3.70;99.90
41592;DHT22;28026;48.562;14.440;2024-01-16T08:05:14;-3.80;99.90
41592;DHT22;28026;48.562;14.440;2024-01-16T08:07:46;-3.80;99.90
41592;DHT22;28026;48.562;14.440;2024-01-16T08:10:17;-3.80;99.90
41592;DHT22;28026;48.562;14.440;2024-01-16T08:12:48;-3.80;99.90
41592;DHT22;28026;48.562;14.440;2024-01-16T08:15:18;-3.80;99.90
41592;DHT22;28026;48.562;14.440;2024-01-16T08:17:49;-3.90;99.90
41592;DHT22;28026;48.562;14.440;2024-01-16T08:20:20;-3.80;99.90
41592;DHT22;28026;48.562;14.440;2024-01-16T08:22:51;-3.60;99.90
41592;DHT22;28026;48.562;14.440;2024-01-16T08:25:23;-3.60;99.90
41592;DHT22;28026;48.562;14.440;2024-01-16T08:27:54;-3.60;99.90
41592;DHT22;28026;48.562;14.440;2024-01-16T08:30:25;-3.60;99.90
41592;DHT22;28026;48.562;14.440;2024-01-16T08:32:56;-3.50;99.90
41592;DHT22;28026;48.562;14.440;2024-01-16T08:35:27;-3.50;99.90
41592;DHT22;28026;48.562;14.440;2024-01-16T08:37:59;-3.50;99.90
41592;DHT22;28026;48.562;14.440;2024-01-16T08:40:30;-3.50;99.90
41592;DHT22;28026;48.562;14.440;2024-01-16T08:43:01;-3.40;99.90
41592;DHT22;28026;48.562;14.440;2024-01-16T08:45:32;-3.50;99.90
41592;DHT22;28026;48.562;14.440;2024-01-16T08:48:03;-3.40;99.90
41592;DHT22;28026;48.562;14.440;2024-01-16T08:50:34;-3.30;99.90
41592;DHT22;28026;48.562;14.440;2024-01-16T08:53:05;-3.30;99.90
41592;DHT22;28026;48.562;14.440;2024-01-16T08:55:36;-3.40;99.90
41592;DHT22;28026;48.562;14.440;2024-01-16T08:58:07;-3.40;99.90
41592;DHT22;28026;48.562;14.440;2024-01-16T09:00:38;-3.30;99.90
41592;DHT22;28026;48.562;14.440;2024-01-16T09:03:11;-3.40;99.90
41592;DHT22;28026;48.562;14.440;2024-01-16T09:05:42;-3.20;99.90
41592;DHT22;28026;48.562;14.440;2024-01-16T09:08:13;-3.10;99.90
41592;DHT22;28026;48.562;14.440;2024-01-16T09:10:44;-3.10;99.90
41592;DHT22;28026;48.562;14.440;2024-01-16T09:13:15;-3.10;99.90
41592;DHT22;28026;48.562;14.440;2024-01-16T09:15:47;-3.00;99.90
41592;DHT22;28026;48.562;14.440;2024-01-16T09:18:19;-3.00;99.90
41592;DHT22;28026;48.562;14.440;2024-01-16T09:20:50;-2.90;99.90
41592;DHT22;28026;48.562;14.440;2024-01-16T09:23:21;-2.80;99.90
41592;DHT22;28026;48.562;14.440;2024-01-16T09:25:52;-3.00;99.90
41592;DHT22;28026;48.562;14.440;2024-01-16T09:28:22;-2.90;99.90
41592;DHT22;28026;48.562;14.440;2024-01-16T09:30:54;-2.90;99.90
41592;DHT22;28026;48.562;14.440;2024-01-16T09:33:26;-2.70;99.90
41592;DHT22;28026;48.562;14.440;2024-01-16T09:35:57;-2.70;99.90
41592;DHT22;28026;48.562;14.440;2024-01-16T09:38:28;-2.80;99.90
41592;DHT22;28026;48.562;14.440;2024-01-16T09:41:00;-2.70;99.90
41592;DHT22;28026;48.562;14.440;2024-01-16T09:43:33;-2.70;99.90
41592;DHT22;28026;48.562;14.440;2024-01-16T09:46:05;-2.60;99.90
41592;DHT22;28026;48.562;14.440;2024-01-16T09:48:38;-2.40;99.90
41592;DHT22;28026;48.562;14.440;2024-01-16T09:51:12;-1.90;99.90
41592;DHT22;28026;48.562;14.440;2024-01-16T09:53:46;-1.70;99.90
41592;DHT22;28026;48.562;14.440;2024-01-16T09:56:21;-1.70;99.90
41592;DHT22;28026;48.562;14.440;2024-01-16T09:58:58;-1.60;99.90
41592;DHT22;28026;48.562;14.440;2024-01-16T10:01:37;-1.20;99.90
41592;DHT22;28026;48.562;14.440;2024-01-16T10:04:09;-1.20;99.90
41592;DHT22;28026;48.562;14.440;2024-01-16T10:06:41;-1.20;99.90
41592;DHT22;28026;48.562;14.440;2024-01-16T10:09:19;-0.90;99.90
41592;DHT22;28026;48.562;14.440;2024-01-16T10:11:50;-0.90;99.90
41592;DHT22;28026;48.562;14.440;2024-01-16T10:14:23;-1.20;99.90
41592;DHT22;28026;48.562;14.440;2024-01-16T10:16:56;-1.70;99.90
41592;DHT22;28026;48.562;14.440;2024-01-16T10:19:51;-1.70;99.90
41592;DHT22;28026;48.562;14.440;2024-01-16T10:22:25;-1.60;99.90
41592;DHT22;28026;48.562;14.440;2024-01-16T10:25:10;-1.40;99.90
41592;DHT22;28026;48.562;14.440;2024-01-16T10:27:47;-2.00;99.90
41592;DHT22;28026;48.562;14.440;2024-01-16T10:30:21;-2.10;99.90
41592;DHT22;28026;48.562;14.440;2024-01-16T10:32:53;-1.70;99.90
41592;DHT22;28026;48.562;14.440;2024-01-16T10:35:24;-1.50;99.90
41592;DHT22;28026;48.562;14.440;2024-01-16T10:37:56;-1.40;99.90
41592;DHT22;28026;48.562;14.440;2024-01-16T10:40:27;-1.40;99.90
41592;DHT22;28026;48.562;14.440;2024-01-16T10:43:04;-1.30;99.90
41592;DHT22;28026;48.562;14.440;2024-01-16T10:45:35;-1.40;99.90
41592;DHT22;28026;48.562;14.440;2024-01-16T10:48:07;-1.60;99.90
41592;DHT22;28026;48.562;14.440;2024-01-16T10:50:38;-1.80;99.90
41592;DHT22;28026;48.562;14.440;2024-01-16T10:53:13;-1.40;99.90
41592;DHT22;28026;48.562;14.440;2024-01-16T10:55:50;-1.40;99.90
41592;DHT22;28026;48.562;14.440;2024-01-16T10:58:23;-1.50;99.90
41592;DHT22;28026;48.562;14.440;2024-01-16T11:01:02;-1.30;99.90
41592;DHT22;28026;48.562;14.440;2024-01-16T11:06:17;-1.00;99.90
41592;DHT22;28026;48.562;14.440;2024-01-16T11:08:49;-1.00;99.90
41592;DHT22;28026;48.562;14.440;2024-01-16T11:11:20;-1.00;99.90
41592;DHT22;28026;48.562;14.440;2024-01-16T11:13:53;-0.50;99.90
41592;DHT22;28026;48.562;14.440;2024-01-16T11:16:26;-0.70;99.90
41592;DHT22;28026;48.562;14.440;2024-01-16T11:19:02;-1.00;99.90
41592;DHT22;28026;48.562;14.440;2024-01-16T11:21:37;-0.80;99.90
41592;DHT22;28026;48.562;14.440;2024-01-16T11:24:10;-1.00;99.90
41592;DHT22;28026;48.562;14.440;2024-01-16T11:26:42;-1.20;99.90
41592;DHT22;28026;48.562;14.440;2024-01-16T11:29:39;-1.20;99.90
41592;DHT22;28026;48.562;14.440;2024-01-16T11:32:32;-1.10;99.90
41592;DHT22;28026;48.562;14.440;2024-01-16T11:35:07;-1.40;99.90
41592;DHT22;28026;48.562;14.440;2024-01-16T11:37:41;-0.80;99.90
41592;DHT22;28026;48.562;14.440;2024-01-16T11:42:52;-0.70;99.90
41592;DHT22;28026;48.562;14.440;2024-01-16T11:48:13;-1.10;99.90
41592;DHT22;28026;48.562;14.440;2024-01-16T11:50:46;-1.00;99.90
41592;DHT22;28026;48.562;14.440;2024-01-16T11:53:34;-1.70;99.90
41592;DHT22;28026;48.562;14.440;2024-01-16T12:02:15;-1.20;99.90
41592;DHT22;28026;48.562;14.440;2024-01-16T12:04:54;-1.20;99.90
41592;DHT22;28026;48.562;14.440;2024-01-16T12:07:26;-1.60;99.90
41592;DHT22;28026;48.562;14.440;2024-01-16T12:10:00;-1.60;99.90
41592;DHT22;28026;48.562;14.440;2024-01-16T12:12:31;-1.60;99.90
41592;DHT22;28026;48.562;14.440;2024-01-16T12:15:03;-1.70;99.90
41592;DHT22;28026;48.562;14.440;2024-01-16T12:17:34;-2.00;99.90
41592;DHT22;28026;48.562;14.440;2024-01-16T12:20:16;-1.80;99.90
41592;DHT22;28026;48.562;14.440;2024-01-16T12:22:56;-1.70;99.90
41592;DHT22;28026;48.562;14.440;2024-01-16T12:25:33;-1.60;99.90
41592;DHT22;28026;48.562;14.440;2024-01-16T12:28:08;-1.10;99.90
41592;DHT22;28026;48.562;14.440;2024-01-16T12:30:49;-1.40;99.90
41592;DHT22;28026;48.562;14.440;2024-01-16T12:33:22;-1.50;99.90
41592;DHT22;28026;48.562;14.440;2024-01-16T12:36:01;-1.70;99.90
41592;DHT22;28026;48.562;14.440;2024-01-16T12:38:33;-1.70;99.90
41592;DHT22;28026;48.562;14.440;2024-01-16T12:41:09;-1.80;99.90
41592;DHT22;28026;48.562;14.440;2024-01-16T12:43:42;-1.90;99.90
41592;DHT22;28026;48.562;14.440;2024-01-16T12:46:13;-1.80;99.90
41592;DHT22;28026;48.562;14.440;2024-01-16T12:48:44;-1.70;99.90
41592;DHT22;28026;48.562;14.440;2024-01-16T12:51:21;-2.00;99.90
41592;DHT22;28026;48.562;14.440;2024-01-16T12:53:53;-2.00;99.90
41592;DHT22;28026;48.562;14.440;2024-01-16T12:56:24;-1.80;99.90
41592;DHT22;28026;48.562;14.440;2024-01-16T12:58:55;-1.90;99.90
41592;DHT22;28026;48.562;14.440;2024-01-16T13:01:27;-1.60;99.90
41592;DHT22;28026;48.562;14.440;2024-01-16T13:04:03;-1.40;99.90
41592;DHT22;28026;48.562;14.440;2024-01-16T13:06:34;-1.40;99.90
41592;DHT22;28026;48.562;14.440;2024-01-16T13:09:10;-1.10;99.90
41592;DHT22;28026;48.562;14.440;2024-01-16T13:11:52;-1.30;99.90
41592;DHT22;28026;48.562;14.440;2024-01-16T13:14:25;-1.20;99.90
41592;DHT22;28026;48.562;14.440;2024-01-16T13:16:56;-1.40;99.90
41592;DHT22;28026;48.562;14.440;2024-01-16T13:19:27;-1.30;99.90
41592;DHT22;28026;48.562;14.440;2024-01-16T13:22:03;-1.10;99.90
41592;DHT22;28026;48.562;14.440;2024-01-16T13:24:34;-1.00;99.90
41592;DHT22;28026;48.562;14.440;2024-01-16T13:27:06;-1.10;99.90
41592;DHT22;28026;48.562;14.440;2024-01-16T13:29:39;-1.10;99.90
41592;DHT22;28026;48.562;14.440;2024-01-16T13:32:10;-1.20;99.90
41592;DHT22;28026;48.562;14.440;2024-01-16T13:34:41;-1.30;99.90
41592;DHT22;28026;48.562;14.440;2024-01-16T13:37:20;-1.30;99.90
41592;DHT22;28026;48.562;14.440;2024-01-16T13:39:53;-1.00;99.90
41592;DHT22;28026;48.562;14.440;2024-01-16T13:42:24;-0.90;99.90
41592;DHT22;28026;48.562;14.440;2024-01-16T13:44:55;-0.70;99.90
41592;DHT22;28026;48.562;14.440;2024-01-16T13:47:25;-0.90;99.90
41592;DHT22;28026;48.562;14.440;2024-01-16T13:49:56;-0.80;99.90
41592;DHT22;28026;48.562;14.440;2024-01-16T13:52:27;-0.80;99.90
41592;DHT22;28026;48.562;14.440;2024-01-16T13:54:58;-0.60;99.90
41592;DHT22;28026;48.562;14.440;2024-01-16T13:57:32;-0.50;99.90
41592;DHT22;28026;48.562;14.440;2024-01-16T14:00:07;-0.40;99.90
41592;DHT22;28026;48.562;14.440;2024-01-16T14:02:48;-1.10;99.90
41592;DHT22;28026;48.562;14.440;2024-01-16T14:05:19;-1.40;99.90
41592;DHT22;28026;48.562;14.440;2024-01-16T14:07:51;-1.60;99.90
41592;DHT22;28026;48.562;14.440;2024-01-16T14:10:23;-2.00;99.90
41592;DHT22;28026;48.562;14.440;2024-01-16T14:12:55;-2.50;99.90
41592;DHT22;28026;48.562;14.440;2024-01-16T14:15:26;-2.90;99.90
41592;DHT22;28026;48.562;14.440;2024-01-16T14:17:57;-2.90;99.90
41592;DHT22;28026;48.562;14.440;2024-01-16T14:20:28;-2.90;99.90
41592;DHT22;28026;48.562;14.440;2024-01-16T14:22:59;-2.80;99.90
41592;DHT22;28026;48.562;14.440;2024-01-16T14:25:31;-2.70;99.90
41592;DHT22;28026;48.562;14.440;2024-01-16T14:28:03;-2.80;99.90
41592;DHT22;28026;48.562;14.440;2024-01-16T14:30:35;-2.80;99.90
41592;DHT22;28026;48.562;14.440;2024-01-16T14:33:06;-2.40;99.90
41592;DHT22;28026;48.562;14.440;2024-01-16T14:35:38;-2.20;99.90
41592;DHT22;28026;48.562;14.440;2024-01-16T14:38:09;-2.00;99.90
41592;DHT22;28026;48.562;14.440;2024-01-16T14:40:40;-1.90;99.90
41592;DHT22;28026;48.562;14.440;2024-01-16T14:43:11;-1.80;99.90
41592;DHT22;28026;48.562;14.440;2024-01-16T14:45:42;-1.90;99.90
41592;DHT22;28026;48.562;14.440;2024-01-16T14:48:15;-1.90;99.90
41592;DHT22;28026;48.562;14.440;2024-01-16T14:50:46;-1.90;99.90
41592;DHT22;28026;48.562;14.440;2024-01-16T14:53:19;-1.90;99.90
41592;DHT22;28026;48.562;14.440;2024-01-16T14:55:50;-2.00;99.90
41592;DHT22;28026;48.562;14.440;2024-01-16T14:58:22;-2.20;99.90
41592;DHT22;28026;48.562;14.440;2024-01-16T15:00:53;-2.10;99.90
41592;DHT22;28026;48.562;14.440;2024-01-16T15:03:26;-2.20;99.90
41592;DHT22;28026;48.562;14.440;2024-01-16T15:05:56;-2.30;99.90
41592;DHT22;28026;48.562;14.440;2024-01-16T15:08:27;-2.80;99.90
41592;DHT22;28026;48.562;14.440;2024-01-16T15:11:01;-3.40;99.90
41592;DHT22;28026;48.562;14.440;2024-01-16T15:13:32;-3.50;99.90
41592;DHT22;28026;48.562;14.440;2024-01-16T15:16:04;-3.40;99.90
41592;DHT22;28026;48.562;14.440;2024-01-16T15:18:34;-3.40;99.90
41592;DHT22;28026;48.562;14.440;2024-01-16T15:21:05;-3.40;99.90
41592;DHT22;28026;48.562;14.440;2024-01-16T15:23:36;-3.40;99.90
41592;DHT22;28026;48.562;14.440;2024-01-16T15:26:07;-3.40;99.90
41592;DHT22;28026;48.562;14.440;2024-01-16T15:28:38;-3.40;99.90
41592;DHT22;28026;48.562;14.440;2024-01-16T15:31:10;-3.40;99.90
41592;DHT22;28026;48.562;14.440;2024-01-16T15:33:43;-3.50;99.90
41592;DHT22;28026;48.562;14.440;2024-01-16T15:36:14;-3.40;99.90
41592;DHT22;28026;48.562;14.440;2024-01-16T15:38:45;-3.50;99.90
41592;DHT22;28026;48.562;14.440;2024-01-16T15:41:16;-3.50;99.90
41592;DHT22;28026;48.562;14.440;2024-01-16T15:43:47;-3.50;99.90
41592;DHT22;28026;48.562;14.440;2024-01-16T15:46:18;-3.50;99.90
41592;DHT22;28026;48.562;14.440;2024-01-16T15:48:49;-3.40;99.90
41592;DHT22;28026;48.562;14.440;2024-01-16T15:51:21;-3.30;99.90
41592;DHT22;28026;48.562;14.440;2024-01-16T15:53:53;-3.40;99.90
41592;DHT22;28026;48.562;14.440;2024-01-16T15:56:23;-3.50;99.90
41592;DHT22;28026;48.562;14.440;2024-01-16T15:58:54;-3.50;99.90